Time;durP1;ratioP1;P1;durP2;ratioP2;P2;SDS_P1;SDS_P2;PMS_P1;PMS_P2;Temp;Humidity;BMP_temperature;BMP_pressure;BME280_temperature;BME280_humidity;BME280_pressure;Samples;Min_cycle;Max_cycle;Signal;HPM_P1;HPM_P2
2022/09/15 00:01:37;;;;;;;3.92;1.00;;;;;;;;;;6151805;23;20108;-78
2022/09/15 00:04:04;;;;;;;9.63;1.10;;;;;;;;;;6152093;23;20453;-78
2022/09/15 00:06:30;;;;;;;2.00;1.30;;;;;;;;;;6152067;23;20018;-79
2022/09/15 00:08:57;;;;;;;1.35;1.02;;;18.20;99.90;;;;;;6151877;23;20067;-78
2022/09/15 00:11:25;;;;;;;5.82;1.33;;;18.30;99.90;;;;;;6152255;23;20084;-77
2022/09/15 00:13:52;;;;;;;1.83;1.27;;;;;;;;;;6151542;23;20025;-77
2022/09/15 00:16:19;;;;;;;2.95;1.50;;;18.20;99.90;;;;;;6151476;23;20005;-76
2022/09/15 00:18:45;;;;;;;;;;;18.20;99.90;;;;;;6152641;23;20064;-77
2022/09/15 00:21:21;;;;;;;2.58;1.52;;;18.10;99.90;;;;;;6152407;23;20312;-77
2022/09/15 00:23:47;;;;;;;5.45;2.08;;;18.20;99.90;;;;;;6151832;23;20464;-77
2022/09/15 00:26:16;;;;;;;4.72;1.52;;;17.90;99.90;;;;;;6152068;23;20093;-77
2022/09/15 00:28:42;;;;;;;2.85;1.55;;;;;;;;;;6150228;23;20013;-77
2022/09/15 00:31:10;;;;;;;2.47;1.60;;;18.20;99.90;;;;;;6152035;23;20070;-77
2022/09/15 00:33:37;;;;;;;1.17;0.95;;;;;;;;;;6151770;23;20017;-77
2022/09/15 00:36:06;;;;;;;1.88;1.40;;;18.10;99.90;;;;;;6151973;23;20425;-77
2022/09/15 00:38:32;;;;;;;4.75;1.65;;;18.10;99.90;;;;;;6154061;23;20449;-77
2022/09/15 00:40:59;;;;;;;2.10;1.40;;;18.10;99.90;;;;;;6153821;23;20013;-77
2022/09/15 00:43:46;;;;;;;3.33;1.63;;;;;;;;;;6154064;23;20521;-77
2022/09/15 00:46:12;;;;;;;1.70;1.25;;;17.90;99.90;;;;;;6153389;23;20017;-76
2022/09/15 00:48:46;;;;;;;1.38;1.27;;;18.00;99.90;;;;;;6153863;23;19998;-77
2022/09/15 00:51:17;;;;;;;1.60;1.13;;;17.90;99.90;;;;;;6153758;23;20448;-77
2022/09/15 00:53:45;;;;;;;1.63;1.17;;;17.80;99.90;;;;;;6153794;23;20004;-77
2022/09/15 00:56:12;;;;;;;2.60;1.25;;;17.50;99.90;;;;;;6153828;23;20010;-77
2022/09/15 00:58:55;;;;;;;1.73;1.50;;;17.80;99.90;;;;;;6153847;23;20017;-77
2022/09/15 01:01:24;;;;;;;2.00;1.30;;;15.40;99.90;;;;;;6153392;23;20201;-77
2022/09/15 01:03:50;;;;;;;4.28;1.58;;;17.50;99.90;;;;;;6153918;23;20029;-77
2022/09/15 01:06:36;;;;;;;2.88;1.40;;;17.50;99.90;;;;;;6153667;23;20013;-77
2022/09/15 01:09:25;;;;;;;1.52;1.20;;;17.40;99.90;;;;;;6153669;23;20116;-78
2022/09/15 01:11:51;;;;;;;1.80;1.33;;;;;;;;;;6153456;23;20065;-77
2022/09/15 01:14:18;;;;;;;3.38;1.50;;;;;;;;;;6153214;23;20009;-76
2022/09/15 01:16:46;;;;;;;4.60;1.85;;;17.30;99.90;;;;;;6153368;23;20052;-76
2022/09/15 01:19:50;;;;;;;6.05;1.92;;;17.20;99.90;;;;;;6154190;23;20421;-77
2022/09/15 01:22:34;;;;;;;6.85;1.92;;;17.40;99.90;;;;;;6153506;23;20460;-77
2022/09/15 01:25:48;;;;;;;4.10;2.00;;;17.50;99.90;;;;;;6153344;23;20084;-78
2022/09/15 01:28:28;;;;;;;3.08;2.08;;;17.40;99.90;;;;;;6153579;23;20072;-77
2022/09/15 01:31:14;;;;;;;5.80;2.00;;;17.40;99.90;;;;;;6153545;23;20064;-77
2022/09/15 01:33:50;;;;;;;3.25;1.88;;;17.30;99.90;;;;;;6152639;23;20010;-77
2022/09/15 01:36:31;;;;;;;3.45;1.30;;;17.50;99.90;;;;;;6153321;23;20012;-77
2022/09/15 01:39:20;;;;;;;3.17;1.40;;;17.40;99.90;;;;;;6153157;23;20016;-77
2022/09/15 01:41:51;;;;;;;1.58;1.42;;;17.60;99.90;;;;;;6153289;23;20002;-78
2022/09/15 01:44:46;;;;;;;4.07;1.50;;;17.40;99.90;;;;;;6152772;23;20643;-76
2022/09/15 01:47:15;;;;;;;5.65;2.17;;;17.40;99.90;;;;;;6153373;23;20017;-78
2022/09/15 01:50:00;;;;;;;2.97;1.85;;;17.40;99.90;;;;;;6152581;23;20136;-77
2022/09/15 01:52:27;;;;;;;2.22;1.45;;;;;;;;;;6153450;23;20444;-77
2022/09/15 01:54:58;;;;;;;7.65;1.85;;;17.30;99.90;;;;;;6153284;23;20080;-77
2022/09/15 01:57:26;;;;;;;2.40;1.50;;;17.30;99.90;;;;;;6153491;23;20025;-77
2022/09/15 01:59:54;;;;;;;2.63;1.58;;;17.30;99.90;;;;;;6153641;23;20001;-77
2022/09/15 02:02:28;;;;;;;2.97;1.75;;;17.30;99.90;;;;;;6152720;23;20013;-77
2022/09/15 02:05:20;;;;;;;6.60;2.75;;;17.10;99.90;;;;;;6152615;23;20013;-77
2022/09/15 02:08:04;;;;;;;2.78;2.05;;;16.90;99.90;;;;;;6152643;23;20017;-77
2022/09/15 02:10:43;;;;;;;2.88;1.83;;;17.10;99.90;;;;;;6152806;23;20057;-77
2022/09/15 02:13:36;;;;;;;2.28;1.70;;;17.20;99.90;;;;;;6153195;23;20495;-77
2022/09/15 02:16:03;;;;;;;3.15;1.92;;;;;;;;;;6152604;23;20440;-76
2022/09/15 02:19:13;;;;;;;3.50;1.63;;;17.10;99.90;;;;;;6152986;23;20016;-77
2022/09/15 02:21:46;;;;;;;2.97;2.00;;;17.00;99.90;;;;;;6142148;23;20009;-77
2022/09/15 02:24:22;;;;;;;2.22;1.48;;;17.00;99.90;;;;;;6153430;23;20056;-77
2022/09/15 02:26:50;;;;;;;3.88;0.80;;;17.10;99.90;;;;;;6153100;23;20048;-77
2022/09/15 02:29:19;;;;;;;2.03;1.33;;;17.10;99.90;;;;;;6153314;23;20002;-77
2022/09/15 02:31:47;;;;;;;4.13;1.50;;;17.00;99.90;;;;;;6152986;23;20013;-76
2022/09/15 02:34:18;;;;;;;;;;;16.90;99.90;;;;;;6152255;23;20005;-76
2022/09/15 02:36:45;;;;;;;2.05;1.30;;;15.50;99.90;;;;;;6152990;23;20387;-77
2022/09/15 02:39:15;;;;;;;4.28;0.90;;;17.00;99.90;;;;;;6152625;23;20005;-77
2022/09/15 02:41:41;;;;;;;3.65;1.33;;;17.00;99.90;;;;;;6152381;23;20012;-77
2022/09/15 02:44:08;;;;;;;1.70;1.00;;;17.20;99.90;;;;;;6152960;23;20009;-77
2022/09/15 02:46:34;;;;;;;2.38;1.00;;;17.30;99.90;;;;;;6152661;23;20013;-77
2022/09/15 02:49:00;;;;;;;1.70;0.90;;;17.20;99.90;;;;;;6150994;23;20467;-77
2022/09/15 02:51:26;;;;;;;2.15;1.00;;;;;;;;;;6126566;23;20085;-77
2022/09/15 02:53:52;;;;;;;1.10;1.00;;;;;;;;;;6153217;23;19997;-77
2022/09/15 02:56:18;;;;;;;5.22;1.27;;;;;;;;;;6152626;23;20403;-77
2022/09/15 02:58:44;;;;;;;3.47;0.90;;;;;;;;;;6152734;23;20080;-76
2022/09/15 03:01:14;;;;;;;2.65;1.33;;;17.10;99.90;;;;;;6152118;23;20005;-76
2022/09/15 03:03:41;;;;;;;1.48;0.88;;;17.00;99.90;;;;;;6152812;23;20012;-77
2022/09/15 03:06:16;;;;;;;2.28;1.80;;;;;;;;;;6152260;23;20024;-78
2022/09/15 03:08:49;;;;;;;1.40;1.25;;;17.20;99.90;;;;;;6152454;23;20009;-76
2022/09/15 03:11:16;;;;;;;2.45;1.20;;;17.20;99.90;;;;;;6152768;23;20005;-77
2022/09/15 03:13:42;;;;;;;3.15;1.10;;;;;;;;;;6152693;23;20016;-77
2022/09/15 03:16:10;;;;;;;4.93;1.40;;;17.10;99.90;;;;;;6151960;23;20036;-77
2022/09/15 03:18:36;;;;;;;;;;;17.20;99.90;;;;;;6152803;23;20096;-76
2022/09/15 03:21:04;;;;;;;2.00;0.90;;;17.10;99.90;;;;;;6152504;23;19931;-77
2022/09/15 03:23:30;;;;;;;1.08;0.98;;;;;;;;;;6152409;23;20021;-77
2022/09/15 03:25:58;;;;;;;3.00;1.48;;;;;;;;;;6152427;23;20470;-77
2022/09/15 03:28:24;;;;;;;4.70;1.30;;;;;;;;;;6152391;23;20457;-77
2022/09/15 03:30:50;;;;;;;3.17;1.35;;;;;;;;;;6152111;23;20001;-77
2022/09/15 03:33:16;;;;;;;2.90;1.25;;;;;;;;;;6152579;23;20448;-77
2022/09/15 03:35:42;;;;;;;5.47;1.48;;;;;;;;;;6151918;23;20013;-77
2022/09/15 03:38:07;;;;;;;2.53;1.13;;;;;;;;;;6152191;23;20013;-76
2022/09/15 03:40:34;;;;;;;2.60;1.05;;;;;;;;;;6152216;23;20025;-77
2022/09/15 03:43:00;;;;;;;1.20;1.10;;;17.20;99.90;;;;;;6152165;23;20012;-77
2022/09/15 03:45:26;;;;;;;3.60;1.20;;;17.00;99.90;;;;;;6151403;23;20002;-77
2022/09/15 03:47:52;;;;;;;4.63;1.35;;;;;;;;;;6151984;23;20037;-77
2022/09/15 03:50:18;;;;;;;1.48;1.38;;;;;;;;;;6125912;23;20005;-77
2022/09/15 03:52:45;;;;;;;1.95;1.75;;;;;;;;;;6152568;23;20006;-77
2022/09/15 03:55:11;;;;;;;8.02;2.20;;;17.30;99.90;;;;;;6151919;23;20076;-77
2022/09/15 03:57:37;;;;;;;5.03;2.07;;;17.00;99.90;;;;;;6152367;23;20013;-76
2022/09/15 04:00:06;;;;;;;2.45;1.10;;;17.30;99.90;;;;;;6152044;23;20084;-76
2022/09/15 04:02:32;;;;;;;6.22;1.90;;;;;;;;;;6150555;23;20010;-77
2022/09/15 04:04:58;;;;;;;7.63;1.45;;;17.00;99.90;;;;;;6151950;23;20356;-76
2022/09/15 04:07:24;;;;;;;2.83;1.80;;;;;;;;;;6125942;23;20040;-77
2022/09/15 04:09:50;;;;;;;2.03;1.45;;;16.90;99.90;;;;;;6152386;23;20002;-77
2022/09/15 04:12:16;;;;;;;2.00;1.33;;;;;;;;;;6151740;23;20017;-77
2022/09/15 04:14:42;;;;;;;4.70;1.25;;;;;;;;;;6151558;23;20012;-77
2022/09/15 04:17:09;;;;;;;1.20;1.00;;;;;;;;;;6151907;23;20018;-77
2022/09/15 04:19:35;;;;;;;1.73;1.15;;;;;;;;;;6152024;23;20036;-77
2022/09/15 04:22:01;;;;;;;0.82;0.80;;;17.00;99.90;;;;;;6152073;23;20001;-77
2022/09/15 04:24:27;;;;;;;4.53;1.20;;;;;;;;;;6152287;23;20002;-77
2022/09/15 04:26:53;;;;;;;2.63;1.10;;;17.10;99.90;;;;;;6151820;23;20444;-77
2022/09/15 04:29:19;;;;;;;3.13;1.23;;;;;;;;;;6151429;23;19998;-77
2022/09/15 04:31:45;;;;;;;3.53;0.95;;;17.10;99.90;;;;;;6151593;23;20011;-77
2022/09/15 04:34:11;;;;;;;5.65;1.15;;;17.40;99.90;;;;;;6125749;23;20085;-77
2022/09/15 04:36:37;;;;;;;1.13;0.93;;;;;;;;;;6151896;23;20025;-76
2022/09/15 04:39:05;;;;;;;4.43;1.45;;;;;;;;;;6152123;23;20056;-76
2022/09/15 04:41:32;;;;;;;1.25;1.13;;;16.90;99.90;;;;;;6151954;23;20005;-76
2022/09/15 04:43:58;;;;;;;4.88;1.50;;;;;;;;;;6151930;23;20088;-76
2022/09/15 04:46:24;;;;;;;1.45;1.00;;;;;;;;;;6150966;23;20009;-76
2022/09/15 04:48:50;;;;;;;4.20;1.00;;;;;;;;;;6151727;23;19998;-76
2022/09/15 04:51:19;;;;;;;6.03;1.40;;;16.70;99.90;;;;;;6152038;23;20010;-76
2022/09/15 04:53:45;;;;;;;3.47;2.08;;;16.70;99.90;;;;;;6152360;23;20084;-77
2022/09/15 04:56:14;;;;;;;2.53;1.42;;;16.70;99.90;;;;;;6151587;23;20382;-76
2022/09/15 04:58:54;;;;;;;0.90;0.90;;;16.70;99.90;;;;;;6152136;23;20393;-76
2022/09/15 05:01:23;;;;;;;2.63;1.60;;;16.80;99.90;;;;;;6151842;23;20009;-76
2022/09/15 05:03:49;;;;;;;2.22;1.27;;;16.70;99.90;;;;;;6151651;23;20036;-77
2022/09/15 05:06:18;;;;;;;1.45;1.27;;;16.70;99.90;;;;;;6151017;23;20060;-77
2022/09/15 05:08:47;;;;;;;4.95;1.23;;;17.70;99.90;;;;;;6152572;23;20424;-77
2022/09/15 05:11:13;;;;;;;1.83;1.38;;;;;;;;;;6151753;23;20397;-77
2022/09/15 05:13:39;;;;;;;2.05;1.95;;;16.70;99.90;;;;;;6149749;23;20008;-76
2022/09/15 05:16:13;;;;;;;2.83;1.02;;;16.40;99.90;;;;;;6151489;23;20010;-76
2022/09/15 05:18:41;;;;;;;1.90;1.05;;;16.60;99.90;;;;;;6151576;23;20010;-76
2022/09/15 05:21:08;;;;;;;1.50;1.13;;;16.50;99.90;;;;;;6149049;23;20029;-81
2022/09/15 05:23:35;;;;;;;1.27;1.10;;;16.50;99.90;;;;;;6148607;23;20318;-81
2022/09/15 05:26:04;;;;;;;1.27;1.02;;;16.50;99.90;;;;;;6151039;23;20005;-80
2022/09/15 05:28:35;;;;;;;1.20;1.10;;;16.80;99.90;;;;;;6151324;23;20385;-81
2022/09/15 05:31:01;;;;;;;1.02;0.95;;;;;;;;;;6150701;23;20076;-81
2022/09/15 05:33:27;;;;;;;3.42;1.40;;;;;;;;;;6149991;23;20012;-80
2022/09/15 05:35:57;;;;;;;1.35;1.13;;;16.80;99.90;;;;;;6150328;23;20008;-80
2022/09/15 05:38:24;;;;;;;1.42;1.15;;;16.70;99.90;;;;;;6149965;23;20002;-80
2022/09/15 05:40:50;;;;;;;1.85;1.23;;;;;;;;;;6150472;23;20147;-81
2022/09/15 05:43:17;;;;;;;2.33;1.40;;;16.90;99.90;;;;;;6123853;23;20041;-81
2022/09/15 05:45:43;;;;;;;1.85;1.65;;;;;;;;;;6150043;23;20037;-81
2022/09/15 05:48:09;;;;;;;5.18;0.98;;;;;;;;;;6151429;23;20088;-80
2022/09/15 05:50:35;;;;;;;1.42;1.13;;;;;;;;;;6150916;23;20002;-80
2022/09/15 05:53:02;;;;;;;2.75;1.30;;;;;;;;;;6150346;23;20002;-80
2022/09/15 05:55:28;;;;;;;1.02;0.93;;;;;;;;;;6151347;23;20012;-79
2022/09/15 05:57:54;;;;;;;1.20;1.10;;;;;;;;;;6151227;23;20310;-79
2022/09/15 06:00:20;;;;;;;1.55;1.25;;;;;;;;;;6150769;23;20590;-78
2022/09/15 06:02:46;;;;;;;2.30;1.55;;;;;;;;;;6151655;23;20310;-79
2022/09/15 06:05:12;;;;;;;1.30;1.20;;;;;;;;;;6151323;23;20012;-79
2022/09/15 06:07:38;;;;;;;2.15;1.55;;;18.40;99.90;;;;;;6150988;23;20014;-79
2022/09/15 06:10:04;;;;;;;2.20;1.90;;;20.70;99.90;;;;;;6151135;23;20385;-79
2022/09/15 06:12:30;;;;;;;2.22;1.80;;;;;;;;;;6151455;23;20002;-80
2022/09/15 06:14:56;;;;;;;5.05;1.67;;;;;;;;;;6150858;23;20012;-79
2022/09/15 06:17:22;;;;;;;2.33;1.30;;;26.80;91.50;;;;;;6151332;23;20368;-80
2022/09/15 06:19:48;;;;;;;5.18;1.40;;;;;;;;;;6151614;23;20009;-78
2022/09/15 06:22:14;;;;;;;4.00;1.60;;;;;;;;;;6150470;23;20117;-74
2022/09/15 06:24:40;;;;;;;3.13;1.20;;;;;;;;;;6150387;23;20431;-69
2022/09/15 06:27:06;;;;;;;8.13;1.30;;;29.60;71.60;;;;;;6151093;23;20041;-70
2022/09/15 06:29:32;;;;;;;3.80;1.38;;;28.70;82.90;;;;;;6150984;23;20072;-71
2022/09/15 06:32:01;;;;;;;7.15;1.38;;;28.70;81.50;;;;;;6151352;23;20456;-72
2022/09/15 06:34:31;;;;;;;1.27;0.68;;;30.30;74.40;;;;;;6151111;23;20016;-73
2022/09/15 06:36:58;;;;;;;1.42;0.88;;;33.40;63.10;;;;;;6150157;23;20010;-71
2022/09/15 06:39:24;;;;;;;;;;;33.40;63.70;;;;;;6151126;23;20008;-71
2022/09/15 06:41:49;;;;;;;1.40;0.82;;;38.10;52.60;;;;;;6151823;23;19901;-71
2022/09/15 06:44:15;;;;;;;1.30;0.90;;;39.80;52.80;;;;;;6124451;23;20036;-70
2022/09/15 06:46:43;;;;;;;0.90;0.60;;;42.20;43.90;;;;;;6151565;23;20013;-82
2022/09/15 06:49:09;;;;;;;3.50;0.68;;;;;;;;;;6151683;23;20005;-82
2022/09/15 06:51:35;;;;;;;2.08;0.60;;;39.70;45.80;;;;;;6151100;23;20016;-91
2022/09/15 06:54:02;;;;;;;0.80;0.60;;;38.90;49.40;;;;;;6151889;23;20466;-82
2022/09/15 06:56:28;;;;;;;1.67;0.50;;;;;;;;;;6151851;23;20010;-78
2022/09/15 06:58:55;;;;;;;0.73;0.32;;;34.60;47.30;;;;;;6151035;23;20072;-77
2022/09/15 07:01:28;;;;;;;2.38;0.40;;;30.80;57.70;;;;;;6151374;23;20005;-82
2022/09/15 07:03:55;;;;;;;4.15;0.88;;;28.20;52.90;;;;;;6151641;23;20005;-79
2022/09/15 07:06:21;;;;;;;;;;;28.30;53.40;;;;;;6151509;23;20014;-78
2022/09/15 07:08:47;;;;;;;1.20;0.68;;;27.10;58.30;;;;;;6151176;23;20011;-76
2022/09/15 07:11:14;;;;;;;3.42;0.70;;;29.30;64.90;;;;;;6151455;23;20504;-75
2022/09/15 07:13:40;;;;;;;1.02;0.60;;;;;;;;;;6150536;23;20468;-78
2022/09/15 07:16:10;;;;;;;3.13;1.52;;;27.00;58.60;;;;;;6150663;23;20006;-78
2022/09/15 07:18:36;;;;;;;1.67;1.25;;;26.20;60.90;;;;;;6149246;23;20021;-78
2022/09/15 07:21:04;;;;;;;2.03;1.00;;;25.80;62.50;;;;;;6151237;23;20330;-78
2022/09/15 07:23:31;;;;;;;3.35;1.00;;;25.10;75.70;;;;;;6151076;23;20013;-83
2022/09/15 07:26:10;;;;;;;6.40;1.40;;;25.30;66.60;;;;;;6151218;23;20056;-77
2022/09/15 07:28:37;;;;;;;5.90;1.02;;;24.80;74.80;;;;;;6151159;23;20010;-77
2022/09/15 07:31:04;;;;;;;1.30;0.90;;;24.40;69.10;;;;;;6151356;23;20009;-78
2022/09/15 07:33:31;;;;;;;1.23;0.68;;;;;;;;;;6151151;23;20009;-76
2022/09/15 07:35:57;;;;;;;15.90;1.80;;;;;;;;;;6150816;23;20002;-76
2022/09/15 07:38:23;;;;;;;1.83;1.15;;;;;;;;;;6150930;23;20013;-80
2022/09/15 07:40:49;;;;;;;3.25;1.35;;;;;;;;;;6151133;23;20006;-79
2022/09/15 07:43:15;;;;;;;2.08;1.05;;;;;;;;;;6150624;23;20433;-79
2022/09/15 07:45:41;;;;;;;2.53;1.13;;;;;;;;;;6150154;23;20012;-79
2022/09/15 07:48:07;;;;;;;4.40;1.30;;;;;;;;;;6150795;23;20600;-80
2022/09/15 07:50:33;;;;;;;1.58;1.10;;;;;;;;;;6124156;23;20001;-75
2022/09/15 07:52:59;;;;;;;2.20;0.95;;;;;;;;;;6150671;23;20016;-81
2022/09/15 07:55:25;;;;;;;2.47;1.20;;;;;;;;;;6150938;23;20048;-81
2022/09/15 07:57:59;;;;;;;2.13;1.42;;;24.30;77.20;;;;;;6150389;23;20088;-74
2022/09/15 08:00:25;;;;;;;4.20;1.52;;;24.20;88.90;;;;;;6151536;23;20005;-73
2022/09/15 08:02:51;;;;;;;2.55;1.58;;;23.90;89.60;;;;;;6150950;23;20005;-72
2022/09/15 08:05:17;;;;;;;2.70;1.30;;;;;;;;;;6150679;23;20012;-72
2022/09/15 08:07:43;;;;;;;3.72;2.58;;;;;;;;;;6150302;23;20018;-75
2022/09/15 08:10:09;;;;;;;2.33;1.50;;;25.50;79.20;;;;;;6151021;23;20002;-75
2022/09/15 08:12:35;;;;;;;2.47;1.52;;;26.00;85.00;;;;;;6150487;23;20012;-75
2022/09/15 08:15:01;;;;;;;1.83;1.45;;;28.70;70.30;;;;;;6150157;23;20001;-74
2022/09/15 08:17:27;;;;;;;4.53;1.70;;;;;;;;;;6151220;23;20175;-72
2022/09/15 08:19:53;;;;;;;2.85;1.38;;;;;;;;;;6150606;23;20048;-79
2022/09/15 08:22:19;;;;;;;4.83;1.37;;;;;;;;;;6151173;23;20124;-87
2022/09/15 08:24:45;;;;;;;2.80;1.20;;;35.20;58.30;;;;;;6124764;23;20017;-84
2022/09/15 08:27:10;;;;;;;3.10;1.00;;;34.60;55.20;;;;;;6150122;23;20021;-85
2022/09/15 08:29:36;;;;;;;2.63;1.27;;;33.60;57.20;;;;;;6150886;23;20002;-84
2022/09/15 08:32:02;;;;;;;3.57;0.83;;;34.40;53.40;;;;;;6151280;23;20076;-88
2022/09/15 08:34:29;;;;;;;4.00;0.87;;;;;;;;;;6150225;23;20056;-82
2022/09/15 08:36:55;;;;;;;1.85;0.80;;;;;;;;;;6150885;23;20083;-79
2022/09/15 08:39:21;;;;;;;1.88;1.48;;;38.70;54.20;;;;;;6150858;23;20568;-80
2022/09/15 08:41:50;;;;;;;2.55;1.02;;;42.60;45.10;;;;;;6150518;23;20013;-80
2022/09/15 08:44:31;;;;;;;2.22;0.98;;;41.70;44.30;;;;;;6150427;23;20733;-82
2022/09/15 08:47:16;;;;;;;3.42;0.90;;;38.50;41.50;;;;;;6151048;23;20017;-82
2022/09/15 08:50:00;;;;;;;2.03;0.77;;;36.10;40.90;;;;;;6150230;23;20002;-81
2022/09/15 08:52:37;;;;;;;1.63;0.63;;;34.30;44.30;;;;;;6150271;23;20005;-82
2022/09/15 08:55:25;;;;;;;2.65;0.70;;;34.70;44.80;;;;;;6150766;23;20006;-88
2022/09/15 08:57:54;;;;;;;4.32;0.60;;;37.00;41.80;;;;;;6151616;23;20469;-91
2022/09/15 09:00:20;;;;;;;4.55;0.80;;;36.80;40.60;;;;;;6153569;23;20008;-79
2022/09/15 09:02:57;;;;;;;3.13;0.50;;;35.90;49.30;;;;;;6151926;23;20001;-84
2022/09/15 09:05:35;;;;;;;1.83;0.80;;;34.90;42.20;;;;;;6152212;23;20472;-84
2022/09/15 09:08:36;;;;;;;2.70;0.93;;;33.90;51.70;;;;;;6152651;23;20353;-84
2022/09/15 09:11:33;;;;;;;5.20;0.77;;;33.00;45.20;;;;;;6152168;23;20012;-84
2022/09/15 09:14:23;;;;;;;2.40;0.80;;;31.50;54.30;;;;;;6126252;23;20010;-86
2022/09/15 09:16:49;;;;;;;2.95;0.47;;;;;;;;;;6152355;23;20018;-80
2022/09/15 09:19:15;;;;;;;1.20;0.60;;;;;;;;;;6152218;23;20010;-75
2022/09/15 09:21:50;;;;;;;1.38;0.88;;;33.40;45.00;;;;;;6152282;23;20005;-84
2022/09/15 09:24:25;;;;;;;2.78;1.00;;;34.00;52.40;;;;;;6152403;23;20084;-83
2022/09/15 09:26:54;;;;;;;2.33;0.95;;;33.80;44.70;;;;;;6152208;23;20056;-83
2022/09/15 09:29:28;;;;;;;1.23;0.43;;;33.20;46.30;;;;;;6152849;23;19998;-82
2022/09/15 09:31:56;;;;;;;3.78;1.00;;;33.20;53.50;;;;;;6153069;23;20001;-84
2022/09/15 09:34:40;;;;;;;2.28;0.82;;;34.00;53.30;;;;;;6152021;23;20008;-86
2022/09/15 09:37:11;;;;;;;3.92;0.73;;;33.90;51.80;;;;;;6152454;23;20009;-83
2022/09/15 09:39:37;;;;;;;2.72;0.60;;;;;;;;;;6152282;23;20014;-85
2022/09/15 09:42:05;;;;;;;2.20;0.70;;;33.20;43.80;;;;;;6151823;23;20017;-77
2022/09/15 09:44:31;;;;;;;2.22;0.63;;;32.90;48.70;;;;;;6152079;23;20843;-77
2022/09/15 09:47:01;;;;;;;1.20;0.57;;;33.40;52.50;;;;;;6152056;23;20072;-76
2022/09/15 09:49:33;;;;;;;3.47;0.70;;;34.10;43.00;;;;;;6151806;23;20049;-76
2022/09/15 09:52:02;;;;;;;1.48;0.47;;;34.50;42.70;;;;;;6152282;23;20009;-77
2022/09/15 09:54:29;;;;;;;2.58;0.70;;;35.10;44.00;;;;;;6158443;23;20001;-95
2022/09/15 09:56:57;;;;;;;2.03;0.52;;;;;;;;;;6186093;23;20091;-92
2022/09/15 09:59:41;;;;;;;2.20;0.57;;;36.40;40.90;;;;;;6183434;23;20005;-83
2022/09/15 10:02:10;;;;;;;1.33;0.57;;;37.70;39.20;;;;;;6181760;23;20062;-84
2022/09/15 10:04:37;;;;;;;1.40;0.57;;;37.60;39.30;;;;;;6181522;23;20087;-85
2022/09/15 10:07:03;;;;;;;2.85;0.52;;;37.40;40.60;;;;;;6181808;23;20388;-86
2022/09/15 10:09:29;;;;;;;0.35;0.20;;;;;;;;;;6181341;23;20008;-85
2022/09/15 10:11:58;;;;;;;1.17;0.30;;;36.00;40.30;;;;;;6180828;23;20001;-84
2022/09/15 10:14:40;;;;;;;0.47;0.25;;;35.10;47.70;;;;;;6180995;23;20025;-83
2022/09/15 10:17:11;;;;;;;1.63;0.57;;;35.00;47.50;;;;;;6154967;23;20005;-83
2022/09/15 10:19:48;;;;;;;1.17;0.40;;;35.20;40.90;;;;;;6181848;23;20522;-82
2022/09/15 10:22:33;;;;;;;;;;;35.20;41.00;;;;;;6181908;23;20143;-82
2022/09/15 10:25:01;;;;;;;2.17;0.55;;;35.70;40.80;;;;;;6179728;23;19959;-82
2022/09/15 10:27:27;;;;;;;1.50;0.43;;;;;;;;;;6181649;23;20057;-82
2022/09/15 10:29:54;;;;;;;1.45;0.50;;;38.00;45.40;;;;;;6181785;23;20005;-82
2022/09/15 10:32:30;;;;;;;0.70;0.45;;;38.30;39.80;;;;;;6181168;23;20051;-82
2022/09/15 10:35:00;;;;;;;4.82;1.20;;;37.90;38.50;;;;;;6181629;23;20005;-82
2022/09/15 10:37:35;;;;;;;2.42;0.50;;;36.30;37.50;;;;;;6181815;23;20095;-81
2022/09/15 10:40:16;;;;;;;0.93;0.10;;;36.00;38.10;;;;;;6180340;23;20068;-80
2022/09/15 10:42:49;;;;;;;0.88;0.40;;;36.10;38.10;;;;;;6181025;23;20005;-81
2022/09/15 10:45:25;;;;;;;0.80;0.28;;;35.50;47.10;;;;;;6181004;23;20093;-80
2022/09/15 10:48:20;;;;;;;1.90;0.20;;;35.20;39.00;;;;;;6180737;23;20013;-81
2022/09/15 10:50:46;;;;;;;0.82;0.38;;;;;;;;;;6180649;23;20011;-81
2022/09/15 10:53:46;;;;;;;2.22;0.40;;;34.00;40.00;;;;;;6180967;23;20009;-81
2022/09/15 10:56:26;;;;;;;0.98;0.40;;;33.30;40.70;;;;;;6180462;23;20117;-81
2022/09/15 10:59:20;;;;;;;0.60;0.30;;;33.20;40.90;;;;;;6180961;23;20440;-81
2022/09/15 11:02:01;;;;;;;0.80;0.45;;;33.90;49.60;;;;;;6180843;23;20013;-81
2022/09/15 11:04:27;;;;;;;1.67;0.40;;;;;;;;;;6180740;23;19997;-81
2022/09/15 11:07:14;;;;;;;2.30;0.82;;;33.90;40.40;;;;;;6180929;23;20043;-81
2022/09/15 11:10:07;;;;;;;3.05;0.40;;;33.90;49.60;;;;;;6180337;23;20036;-81
2022/09/15 11:12:48;;;;;;;2.20;0.30;;;33.40;44.80;;;;;;6181051;23;20051;-82
2022/09/15 11:15:20;;;;;;;0.95;0.22;;;33.40;48.00;;;;;;6179870;23;20012;-81
2022/09/15 11:17:54;;;;;;;0.68;0.35;;;32.70;43.70;;;;;;6180668;23;20105;-80
2022/09/15 11:20:51;;;;;;;0.82;0.50;;;32.20;42.40;;;;;;6180994;23;20440;-81
2022/09/15 11:23:27;;;;;;;2.50;0.80;;;31.80;43.20;;;;;;6180937;23;20043;-81
2022/09/15 11:25:56;;;;;;;;;;;31.90;43.90;;;;;;6180982;23;20013;-81
2022/09/15 11:28:28;;;;;;;1.35;1.02;;;32.80;42.20;;;;;;6181065;23;20350;-81
2022/09/15 11:31:22;;;;;;;0.35;0.22;;;32.90;50.80;;;;;;6181202;23;20344;-81
2022/09/15 11:34:11;;;;;;;1.52;0.45;;;32.20;51.10;;;;;;6180902;23;20001;-81
2022/09/15 11:36:43;;;;;;;3.95;0.40;;;31.40;43.60;;;;;;6180874;23;20008;-80
2022/09/15 11:39:28;;;;;;;0.32;0.28;;;31.30;43.90;;;;;;6180913;23;20067;-80
2022/09/15 11:42:14;;;;;;;1.58;0.47;;;32.00;43.40;;;;;;6180957;23;20084;-80
2022/09/15 11:44:43;;;;;;;2.33;0.40;;;32.80;42.60;;;;;;6180010;23;20009;-81
2022/09/15 11:47:41;;;;;;;0.80;0.22;;;33.10;42.00;;;;;;6180782;23;20013;-81
2022/09/15 11:50:10;;;;;;;4.95;0.40;;;32.30;42.10;;;;;;6180608;23;20001;-83
2022/09/15 11:52:48;;;;;;;1.48;0.25;;;32.30;43.00;;;;;;6180511;23;20595;-80
2022/09/15 11:55:28;;;;;;;0.75;0.28;;;32.00;46.40;;;;;;6180594;23;20008;-79
2022/09/15 11:58:28;;;;;;;1.25;0.20;;;32.20;49.70;;;;;;6180367;23;20013;-84
2022/09/15 12:01:09;;;;;;;0.90;0.15;;;32.90;51.60;;;;;;6180270;23;20039;-81
2022/09/15 12:03:52;;;;;;;7.88;0.90;;;33.50;41.50;;;;;;6179681;23;20016;-79
2022/09/15 12:06:33;;;;;;;0.68;0.32;;;33.10;42.80;;;;;;6180433;23;20348;-80
2022/09/15 12:09:04;;;;;;;0.77;0.40;;;32.60;52.00;;;;;;6180161;23;20013;-79
2022/09/15 12:11:37;;;;;;;0.63;0.40;;;31.70;42.50;;;;;;6180936;23;20052;-85
2022/09/15 12:14:04;;;;;;;2.13;0.73;;;32.70;42.70;;;;;;6180516;23;20013;-85
2022/09/15 12:16:32;;;;;;;1.48;0.50;;;32.80;44.50;;;;;;6179865;23;20036;-81
2022/09/15 12:19:24;;;;;;;1.15;0.47;;;32.90;41.90;;;;;;6180720;23;20649;-82
2022/09/15 12:22:06;;;;;;;0.90;0.20;;;32.70;51.40;;;;;;6180205;23;20009;-80
2022/09/15 12:24:48;;;;;;;1.15;0.40;;;32.60;52.10;;;;;;6153671;23;20033;-82
2022/09/15 12:27:19;;;;;;;0.60;0.50;;;32.90;51.70;;;;;;6179918;23;20017;-82
2022/09/15 12:29:54;;;;;;;1.13;0.30;;;32.80;49.70;;;;;;6180482;23;20025;-82
2022/09/15 12:32:32;;;;;;;0.60;0.35;;;33.30;45.50;;;;;;6179882;23;20059;-85
2022/09/15 12:35:00;;;;;;;1.75;0.30;;;33.10;42.00;;;;;;6180226;23;20444;-85
2022/09/15 12:37:47;;;;;;;1.17;0.40;;;32.00;42.70;;;;;;6180780;23;20059;-81
2022/09/15 12:40:34;;;;;;;0.82;0.35;;;32.10;43.00;;;;;;6180367;23;20036;-85
2022/09/15 12:43:02;;;;;;;2.28;0.10;;;32.50;48.60;;;;;;6179662;23;20013;-82
2022/09/15 12:45:33;;;;;;;3.13;0.40;;;32.50;49.00;;;;;;6179728;23;20075;-82
2022/09/15 12:48:10;;;;;;;0.70;0.40;;;32.30;42.50;;;;;;6180347;23;20097;-80
2022/09/15 12:50:52;;;;;;;0.30;0.22;;;32.10;42.60;;;;;;6180264;23;20314;-83
2022/09/15 12:53:20;;;;;;;0.50;0.40;;;31.60;43.10;;;;;;6180006;23;20016;-87
2022/09/15 12:55:49;;;;;;;0.30;0.28;;;31.30;43.50;;;;;;6181442;23;20005;-87
2022/09/15 12:58:20;;;;;;;0.95;0.35;;;30.90;43.70;;;;;;6181694;23;20039;-80
2022/09/15 13:00:46;;;;;;;1.65;0.32;;;;;;;;;;6179822;23;20005;-83
2022/09/15 13:03:50;;;;;;;0.55;0.30;;;32.10;44.80;;;;;;6180216;23;20416;-87
2022/09/15 13:06:22;;;;;;;0.68;0.20;;;31.30;43.60;;;;;;6179769;23;20561;-80
2022/09/15 13:09:00;;;;;;;0.55;0.50;;;31.10;43.70;;;;;;6179183;23;20024;-80
2022/09/15 13:11:26;;;;;;;1.30;0.20;;;;;;;;;;6179933;23;20005;-75
2022/09/15 13:14:06;;;;;;;0.30;0.20;;;31.70;44.10;;;;;;6179781;23;20025;-75
2022/09/15 13:16:50;;;;;;;0.20;0.10;;;32.00;43.70;;;;;;6178973;23;20064;-75
2022/09/15 13:19:16;;;;;;;0.63;0.30;;;;;;;;;;6179714;23;20005;-76
2022/09/15 13:22:05;;;;;;;1.20;0.40;;;30.50;54.50;;;;;;6179540;23;20089;-75
2022/09/15 13:24:48;;;;;;;2.10;0.30;;;29.10;48.30;;;;;;6179555;23;20471;-75
2022/09/15 13:27:19;;;;;;;3.10;0.22;;;27.70;62.30;;;;;;6179798;23;20019;-76
2022/09/15 13:29:55;;;;;;;1.10;0.30;;;26.30;57.80;;;;;;6179044;23;20532;-76
2022/09/15 13:32:47;;;;;;;3.88;0.70;;;24.90;77.10;;;;;;6180231;23;20037;-77
2022/09/15 13:35:16;;;;;;;2.97;0.50;;;23.00;81.90;;;;;;6179663;23;20001;-77
2022/09/15 13:38:00;;;;;;;1.27;0.50;;;22.20;84.40;;;;;;6179260;23;20012;-79
2022/09/15 13:40:50;;;;;;;3.40;0.60;;;21.90;88.60;;;;;;6179902;23;20020;-79
2022/09/15 13:43:51;;;;;;;1.10;0.70;;;21.90;89.00;;;;;;6179524;23;19997;-78